Meteo

Ora Tempo Temperatura Umidità Vento Precipitazioni
03:00 cielo sereno 22.8° 67% 2.53 km/h 0 mm
06:00 cielo sereno 26.5° 50% 3.05 km/h 0 mm
09:00 cielo sereno 33.1° 28% 4.7 km/h 0 mm
12:00 poche nuvole 37.1° 20% 3 km/h 0 mm
15:00 nubi sparse 36.0° 22% 0.9 km/h 0 mm
18:00 nubi sparse 29.7° 40% 1.09 km/h 0 mm
21:00 cielo sereno 25.4° 45% 2.33 km/h 0 mm
Ora Tempo Temperatura Umidità Vento Precipitazioni
00:00 cielo sereno 24.6° 48% 2.25 km/h 0 mm
03:00 cielo coperto 23.3° 52% 2.03 km/h 0 mm
06:00 nubi sparse 26.6° 44% 1.49 km/h 0 mm
09:00 nubi sparse 34.0° 26% 2.01 km/h 0 mm
12:00 poche nuvole 36.7° 23% 3.51 km/h 0 mm
15:00 cielo sereno 33.8° 30% 4.46 km/h 0 mm
18:00 cielo sereno 29.5° 44% 1.8 km/h 0 mm
21:00 cielo sereno 24.1° 55% 0.9 km/h 0 mm
Ora Tempo Temperatura Umidità Vento Precipitazioni
00:00 cielo sereno 23.7° 52% 1.18 km/h 0 mm
03:00 cielo sereno 23.0° 53% 1.41 km/h 0 mm
06:00 cielo sereno 27.1° 49% 1.05 km/h 0 mm
09:00 cielo sereno 34.8° 31% 1.42 km/h 0 mm
12:00 cielo sereno 36.6° 27% 4.56 km/h 0 mm
15:00 poche nuvole 35.6° 28% 4.03 km/h 0 mm
18:00 cielo sereno 29.7° 38% 1.61 km/h 0 mm
21:00 cielo sereno 24.2° 46% 0.84 km/h 0 mm
Ora Tempo Temperatura Umidità Vento Precipitazioni
00:00 cielo sereno 23.1° 47% 0.7 km/h 0 mm
03:00 cielo sereno 21.7° 51% 0.62 km/h 0 mm
06:00 cielo sereno 26.2° 42% 0.74 km/h 0 mm
09:00 cielo sereno 33.9° 25% 2.74 km/h 0 mm
12:00 cielo sereno 35.0° 24% 5.13 km/h 0 mm
15:00 cielo sereno 33.6° 27% 4.52 km/h 0 mm
18:00 cielo sereno 27.2° 49% 1.79 km/h 0 mm
21:00 cielo sereno 20.8° 73% 0.36 km/h 0 mm
Ora Tempo Temperatura Umidità Vento Precipitazioni
00:00 cielo sereno 19.8° 81% 0.68 km/h 0 mm
03:00 cielo sereno 19.6° 87% 0.73 km/h 0 mm
06:00 cielo sereno 23.9° 66% 1.34 km/h 0 mm
09:00 poche nuvole 30.2° 40% 3.25 km/h 0 mm
12:00 nubi sparse 31.8° 36% 5.03 km/h 0 mm
15:00 nubi sparse 29.2° 44% 5.42 km/h 0 mm
18:00 nubi sparse 24.6° 73% 1.01 km/h 0 mm
21:00 pioggia leggera 20.5° 91% 0.42 km/h 3.00 mm
Ora Tempo Temperatura Umidità Vento Precipitazioni
00:00 pioggia leggera 20.8° 85% 0.58 km/h 1.19 mm
Martedì 23 Luglio
Temp. max: 37.1°
Temp. min: 22.3°
Ora Tempo Temperatura Umidità Vento Precipitazioni
03:00 cielo sereno 22.8° 67% 2.53 km/h 0 mm
06:00 cielo sereno 26.5° 50% 3.05 km/h 0 mm
09:00 cielo sereno 33.1° 28% 4.7 km/h 0 mm
12:00 poche nuvole 37.1° 20% 3 km/h 0 mm
15:00 nubi sparse 36.0° 22% 0.9 km/h 0 mm
18:00 nubi sparse 29.7° 40% 1.09 km/h 0 mm
21:00 cielo sereno 25.4° 45% 2.33 km/h 0 mm
Mercoledì 24 Luglio
Temp. max: 36.7°
Temp. min: 23.3°
Ora Tempo Temperatura Umidità Vento Precipitazioni
00:00 cielo sereno 24.6° 48% 2.25 km/h 0 mm
03:00 cielo coperto 23.3° 52% 2.03 km/h 0 mm
06:00 nubi sparse 26.6° 44% 1.49 km/h 0 mm
09:00 nubi sparse 34.0° 26% 2.01 km/h 0 mm
12:00 poche nuvole 36.7° 23% 3.51 km/h 0 mm
15:00 cielo sereno 33.8° 30% 4.46 km/h 0 mm
18:00 cielo sereno 29.5° 44% 1.8 km/h 0 mm
21:00 cielo sereno 24.1° 55% 0.9 km/h 0 mm
Giovedì 25 Luglio
Temp. max: 36.6°
Temp. min: 23.0°
Ora Tempo Temperatura Umidità Vento Precipitazioni
00:00 cielo sereno 23.7° 52% 1.18 km/h 0 mm
03:00 cielo sereno 23.0° 53% 1.41 km/h 0 mm
06:00 cielo sereno 27.1° 49% 1.05 km/h 0 mm
09:00 cielo sereno 34.8° 31% 1.42 km/h 0 mm
12:00 cielo sereno 36.6° 27% 4.56 km/h 0 mm
15:00 poche nuvole 35.6° 28% 4.03 km/h 0 mm
18:00 cielo sereno 29.7° 38% 1.61 km/h 0 mm
21:00 cielo sereno 24.2° 46% 0.84 km/h 0 mm
Venerdì 26 Luglio
Temp. max: 35.0°
Temp. min: 20.8°
Ora Tempo Temperatura Umidità Vento Precipitazioni
00:00 cielo sereno 23.1° 47% 0.7 km/h 0 mm
03:00 cielo sereno 21.7° 51% 0.62 km/h 0 mm
06:00 cielo sereno 26.2° 42% 0.74 km/h 0 mm
09:00 cielo sereno 33.9° 25% 2.74 km/h 0 mm
12:00 cielo sereno 35.0° 24% 5.13 km/h 0 mm
15:00 cielo sereno 33.6° 27% 4.52 km/h 0 mm
18:00 cielo sereno 27.2° 49% 1.79 km/h 0 mm
21:00 cielo sereno 20.8° 73% 0.36 km/h 0 mm
Sabato 27 Luglio
Temp. max: 31.8°
Temp. min: 19.6°
Ora Tempo Temperatura Umidità Vento Precipitazioni
00:00 cielo sereno 19.8° 81% 0.68 km/h 0 mm
03:00 cielo sereno 19.6° 87% 0.73 km/h 0 mm
06:00 cielo sereno 23.9° 66% 1.34 km/h 0 mm
09:00 poche nuvole 30.2° 40% 3.25 km/h 0 mm
12:00 nubi sparse 31.8° 36% 5.03 km/h 0 mm
15:00 nubi sparse 29.2° 44% 5.42 km/h 0 mm
18:00 nubi sparse 24.6° 73% 1.01 km/h 0 mm
21:00 pioggia leggera 20.5° 91% 0.42 km/h 3.00 mm
Domenica 28 Luglio
Temp. max: 20.8°
Temp. min: 20.8°
Ora Tempo Temperatura Umidità Vento Precipitazioni
00:00 pioggia leggera 20.8° 85% 0.58 km/h 1.19 mm

Live Cam

VUOI RICEVERE PIÚ INFORMAZIONI SUI NOSTRI SERVIZI?

Usa la form di contatti sul sito o contattaci telefonicamente